createdAt,value
2022-11-27T00:04:29.388Z,10.20
2022-11-27T00:09:30.229Z,11.27
2022-11-27T00:14:32.577Z,9.60
2022-11-27T00:19:33.549Z,9.32
2022-11-27T00:24:34.456Z,9.63
2022-11-27T00:29:36.723Z,9.35
2022-11-27T00:34:37.777Z,8.82
2022-11-27T00:39:38.724Z,8.98
2022-11-27T00:44:41.036Z,9.23
2022-11-27T00:49:41.954Z,10.20
2022-11-27T00:54:42.871Z,9.60
2022-11-27T00:59:45.123Z,9.75
2022-11-27T01:04:46.513Z,9.95
2022-11-27T01:09:47.320Z,9.32
2022-11-27T01:14:49.472Z,10.05
2022-11-27T01:19:50.383Z,9.77
2022-11-27T01:24:51.264Z,9.13
2022-11-27T01:29:53.374Z,11.30
2022-11-27T01:34:54.548Z,14.25
2022-11-27T01:39:55.423Z,9.77
2022-11-27T01:44:58.128Z,9.63
2022-11-27T01:50:08.353Z,11.38
2022-11-27T01:55:13.764Z,9.45
2022-11-27T02:00:17.814Z,11.20
2022-11-27T02:05:21.937Z,9.75
2022-11-27T02:10:24.428Z,9.88
2022-11-27T02:15:36.063Z,10.43
2022-11-27T02:20:46.662Z,11.05
2022-11-27T02:26:01.180Z,11.43
2022-11-27T02:31:10.956Z,11.45
2022-11-27T02:36:19.934Z,11.32
2022-11-27T02:41:26.500Z,11.50
2022-11-27T02:46:30.251Z,10.57
2022-11-27T02:51:37.320Z,11.50
2022-11-27T02:56:39.768Z,10.82
2022-11-27T03:01:46.130Z,10.25
2022-11-27T03:06:49.650Z,10.32
2022-11-27T03:11:50.593Z,11.80
2022-11-27T03:17:02.167Z,10.48
2022-11-27T03:22:05.234Z,11.55
2022-11-27T03:27:06.676Z,9.13
2022-11-27T03:32:09.284Z,10.20
2022-11-27T03:37:10.279Z,9.48
2022-11-27T03:42:21.031Z,9.15
2022-11-27T03:47:32.838Z,9.70
2022-11-27T03:52:40.495Z,9.68
2022-11-27T03:57:48.901Z,11.20
2022-11-27T04:02:53.233Z,10.00
2022-11-27T04:07:54.096Z,10.20
2022-11-27T04:12:54.903Z,9.75
2022-11-27T04:17:57.096Z,10.73
2022-11-27T04:22:58.337Z,11.13
2022-11-27T04:27:59.176Z,10.68
2022-11-27T04:33:01.293Z,11.27
2022-11-27T04:38:02.089Z,10.48
2022-11-27T04:43:02.843Z,10.40
2022-11-27T04:48:06.089Z,10.48
2022-11-27T04:53:06.872Z,9.18
2022-11-27T04:58:07.639Z,10.48
2022-11-27T05:03:10.106Z,10.90
2022-11-27T05:08:11.059Z,10.32
2022-11-27T05:13:11.927Z,10.82
2022-11-27T05:18:14.082Z,10.55
2022-11-27T05:23:14.878Z,11.18
2022-11-27T05:28:15.653Z,11.60
2022-11-27T05:33:19.456Z,10.57
2022-11-27T05:38:20.296Z,9.75
2022-11-27T05:43:21.104Z,8.25
2022-11-27T05:48:23.326Z,7.60
2022-11-27T05:53:24.159Z,6.95
2022-11-27T05:58:24.965Z,6.63
2022-11-27T06:03:27.548Z,6.15
2022-11-27T06:08:28.472Z,7.07
2022-11-27T06:13:29.231Z,6.05
2022-11-27T06:18:31.485Z,6.13
2022-11-27T06:23:32.305Z,6.70
2022-11-27T06:28:33.303Z,6.85
2022-11-27T06:33:35.486Z,7.07
2022-11-27T06:38:39.035Z,7.22
2022-11-27T06:43:40.146Z,8.18
2022-11-27T06:48:42.716Z,6.95
2022-11-27T06:53:49.080Z,7.40
2022-11-27T06:58:52.337Z,7.38
2022-11-27T07:03:54.568Z,7.18
2022-11-27T07:08:56.394Z,7.47
2022-11-27T07:13:59.598Z,7.60
2022-11-27T07:19:04.302Z,7.88
2022-11-27T07:24:05.287Z,9.60
2022-11-27T07:29:06.180Z,7.60
2022-11-27T07:34:14.974Z,8.15
2022-11-27T07:39:33.776Z,7.68
2022-11-27T07:44:39.687Z,8.63
2022-11-27T07:49:42.228Z,7.80
2022-11-27T07:54:43.053Z,7.70
2022-11-27T07:59:47.254Z,8.07
2022-11-27T08:04:49.962Z,9.20
2022-11-27T08:09:53.404Z,9.57
2022-11-27T08:14:54.282Z,9.18
2022-11-27T08:19:56.549Z,9.10
2022-11-27T08:24:58.355Z,8.70
2022-11-27T08:29:59.640Z,10.80
2022-11-27T08:35:02.590Z,10.88
2022-11-27T08:40:04.157Z,11.15
2022-11-27T08:45:05.646Z,11.43
2022-11-27T08:50:09.552Z,12.55
2022-11-27T08:55:10.794Z,14.43
2022-11-27T09:00:13.151Z,13.45
2022-11-27T09:05:15.439Z,13.85
2022-11-27T09:10:16.240Z,13.45
2022-11-27T09:15:18.002Z,13.50
2022-11-27T09:20:20.225Z,13.60
2022-11-27T09:25:21.165Z,13.38
2022-11-27T09:30:22.249Z,13.77
2022-11-27T09:35:24.471Z,13.63
2022-11-27T09:40:25.513Z,15.07
2022-11-27T09:45:28.134Z,14.77
2022-11-27T09:50:33.079Z,16.00
2022-11-27T09:55:38.839Z,15.80
2022-11-27T10:00:39.720Z,15.07
2022-11-27T10:05:49.563Z,15.18
2022-11-27T10:11:06.869Z,14.73
2022-11-27T10:16:16.760Z,14.80
2022-11-27T10:21:28.456Z,14.38
2022-11-27T10:26:32.698Z,14.10
2022-11-27T10:31:38.222Z,12.65
2022-11-27T10:36:44.619Z,10.02
2022-11-27T10:41:52.898Z,9.52
2022-11-27T10:46:58.318Z,8.13
2022-11-27T10:52:00.599Z,6.95
2022-11-27T10:57:20.434Z,5.65
2022-11-27T11:02:30.446Z,5.47
2022-11-27T11:07:32.718Z,5.80
2022-11-27T11:12:33.631Z,4.70
2022-11-27T11:17:37.269Z,4.93
2022-11-27T11:22:46.942Z,4.57
2022-11-27T11:27:50.692Z,4.57
2022-11-27T11:32:52.739Z,4.78
2022-11-27T11:37:56.027Z,4.05
2022-11-27T11:42:58.933Z,3.97
2022-11-27T11:48:01.223Z,4.20
2022-11-27T11:53:16.435Z,3.78
2022-11-27T11:58:36.840Z,4.20
2022-11-27T12:03:52.523Z,4.03
2022-11-27T12:09:04.149Z,4.22
2022-11-27T12:14:19.684Z,4.47
2022-11-27T12:19:47.213Z,4.13
2022-11-27T12:25:00.119Z,4.10
2022-11-27T12:30:13.168Z,4.38
2022-11-27T12:35:33.317Z,4.22
2022-11-27T12:40:55.784Z,4.18
2022-11-27T12:46:03.768Z,4.00
2022-11-27T12:51:10.784Z,3.90
2022-11-27T12:56:21.048Z,3.95
2022-11-27T13:01:28.673Z,3.88
2022-11-27T13:06:32.402Z,4.55
2022-11-27T13:11:39.190Z,8.23
2022-11-27T13:16:46.740Z,6.47
2022-11-27T13:21:49.026Z,4.50
2022-11-27T13:26:57.691Z,5.55
2022-11-27T13:32:02.115Z,4.22
2022-11-27T13:37:05.708Z,3.60
2022-11-27T13:42:18.906Z,4.25
2022-11-27T13:47:22.338Z,3.42
2022-11-27T13:52:23.838Z,4.00
2022-11-27T13:57:27.094Z,3.90
2022-11-27T14:02:41.186Z,3.70
2022-11-27T14:07:45.259Z,4.20
2022-11-27T14:12:55.918Z,4.82
2022-11-27T14:18:08.567Z,4.93
2022-11-27T14:23:12.816Z,4.30
2022-11-27T14:28:18.060Z,5.10
2022-11-27T14:33:21.149Z,5.03
2022-11-27T14:38:22.314Z,5.05
2022-11-27T14:43:26.590Z,5.80
2022-11-27T14:48:31.597Z,5.72
2022-11-27T14:53:32.774Z,5.32
2022-11-27T14:58:35.174Z,6.78
2022-11-27T15:03:37.058Z,5.55
2022-11-27T15:08:39.377Z,5.85
2022-11-27T15:13:41.847Z,5.93
2022-11-27T15:18:49.161Z,5.80
2022-11-27T15:23:51.362Z,6.35
2022-11-27T15:28:54.564Z,6.80
2022-11-27T15:33:57.722Z,7.05
2022-11-27T15:39:16.089Z,6.75
2022-11-27T15:44:18.241Z,7.15
2022-11-27T15:49:20.334Z,8.60
2022-11-27T15:54:21.254Z,7.95
2022-11-27T15:59:24.701Z,8.32
2022-11-27T16:04:25.520Z,7.70
2022-11-27T16:09:26.321Z,8.02
2022-11-27T16:14:28.572Z,7.30
2022-11-27T16:19:30.110Z,6.25
2022-11-27T16:24:30.964Z,6.38
2022-11-27T16:29:33.189Z,7.15
2022-11-27T16:34:34.163Z,6.72
2022-11-27T16:39:35.085Z,6.93
2022-11-27T16:44:38.306Z,7.47
2022-11-27T16:49:39.126Z,7.13
2022-11-27T16:54:40.348Z,7.32
2022-11-27T16:59:42.983Z,9.20
2022-11-27T17:04:43.797Z,7.30
2022-11-27T17:09:44.704Z,8.85
2022-11-27T17:14:47.144Z,7.75
2022-11-27T17:19:49.225Z,13.27
2022-11-27T17:24:51.907Z,9.70
2022-11-27T17:29:56.659Z,9.25
2022-11-27T17:35:02.119Z,9.05
2022-11-27T17:40:04.161Z,11.45
2022-11-27T17:45:07.406Z,11.43
2022-11-27T17:50:09.202Z,8.07
2022-11-27T17:55:10.646Z,7.82
2022-11-27T18:00:14.310Z,8.05
2022-11-27T18:05:15.263Z,7.82
2022-11-27T18:10:18.268Z,7.43
2022-11-27T18:15:21.187Z,8.00
2022-11-27T18:20:22.350Z,7.63
2022-11-27T18:25:23.239Z,7.80
2022-11-27T18:30:27.027Z,8.52
2022-11-27T18:35:27.903Z,7.55
2022-11-27T18:40:28.918Z,9.23
2022-11-27T18:45:34.078Z,9.85
2022-11-27T18:50:36.902Z,11.27
2022-11-27T18:55:37.899Z,12.60
2022-11-27T19:00:40.421Z,12.20
2022-11-27T19:05:41.307Z,13.40
2022-11-27T19:10:42.147Z,14.88
2022-11-27T19:15:46.071Z,15.57
2022-11-27T19:20:48.018Z,14.90
2022-11-27T19:25:53.830Z,15.27
2022-11-27T19:30:56.122Z,16.25
2022-11-27T19:36:01.113Z,16.52
2022-11-27T19:41:02.237Z,17.60
2022-11-27T19:46:12.934Z,18.77
2022-11-27T19:51:14.615Z,17.45
2022-11-27T19:56:15.585Z,17.23
2022-11-27T20:01:20.390Z,17.30
2022-11-27T20:06:23.929Z,17.25
2022-11-27T20:11:29.785Z,17.10
2022-11-27T20:16:36.502Z,17.50
2022-11-27T20:21:39.457Z,16.83
2022-11-27T20:26:42.788Z,16.77
2022-11-27T20:31:45.666Z,17.25
2022-11-27T20:36:46.872Z,17.75
2022-11-27T20:41:48.089Z,18.40
2022-11-27T20:46:51.186Z,16.35
2022-11-27T20:51:52.169Z,17.40
2022-11-27T20:56:56.338Z,18.10
2022-11-27T21:01:58.601Z,18.25
2022-11-27T21:06:59.870Z,19.13
2022-11-27T21:12:01.962Z,18.88
2022-11-27T21:17:05.225Z,19.48
2022-11-27T21:22:08.115Z,20.35
2022-11-27T21:27:09.950Z,18.80
2022-11-27T21:32:13.433Z,19.05
2022-11-27T21:37:14.228Z,20.17
2022-11-27T21:42:15.224Z,18.40
2022-11-27T21:47:18.729Z,18.27
2022-11-27T21:52:20.013Z,18.58
2022-11-27T21:57:21.723Z,18.45
2022-11-27T22:02:23.962Z,18.58
2022-11-27T22:07:24.802Z,17.50
2022-11-27T22:12:25.680Z,16.83
2022-11-27T22:17:27.858Z,16.77
2022-11-27T22:22:29.534Z,15.43
2022-11-27T22:27:30.567Z,16.27
2022-11-27T22:32:32.933Z,16.63
2022-11-27T22:37:33.864Z,15.60
2022-11-27T22:42:34.676Z,13.05
2022-11-27T22:47:36.876Z,14.38
2022-11-27T22:52:37.823Z,14.07
2022-11-27T22:57:38.662Z,13.73
2022-11-27T23:02:40.882Z,13.10
2022-11-27T23:07:42.207Z,14.07
2022-11-27T23:12:43.029Z,12.80
2022-11-27T23:17:45.203Z,13.77
2022-11-27T23:22:45.985Z,14.25
2022-11-27T23:27:47.997Z,12.18
2022-11-27T23:32:50.195Z,11.82
2022-11-27T23:37:51.004Z,11.93
2022-11-27T23:42:51.800Z,12.43
2022-11-27T23:47:53.951Z,11.55
2022-11-27T23:52:55.030Z,11.20
2022-11-27T23:57:55.829Z,12.57
